sensor_id;sensor_type;location;lat;lon;timestamp;P1;durP1;ratioP1;P2;durP2;ratioP2
45368;SDS011;51342;55.250;37.668;2022-07-06T00:04:15;18.33;;;16.50;;
45368;SDS011;51342;55.250;37.668;2022-07-06T00:06:47;18.13;;;16.42;;
45368;SDS011;51342;55.250;37.668;2022-07-06T00:09:19;18.48;;;15.85;;
45368;SDS011;51342;55.250;37.668;2022-07-06T00:11:50;18.58;;;15.50;;
45368;SDS011;51342;55.250;37.668;2022-07-06T00:14:23;20.27;;;16.73;;
45368;SDS011;51342;55.250;37.668;2022-07-06T00:16:54;19.10;;;17.20;;
45368;SDS011;51342;55.250;37.668;2022-07-06T00:19:26;19.45;;;16.05;;
45368;SDS011;51342;55.250;37.668;2022-07-06T00:21:58;14.30;;;12.60;;
45368;SDS011;51342;55.250;37.668;2022-07-06T00:24:29;14.60;;;13.00;;
45368;SDS011;51342;55.250;37.668;2022-07-06T00:27:00;15.68;;;13.95;;
45368;SDS011;51342;55.250;37.668;2022-07-06T00:29:32;13.52;;;12.20;;
45368;SDS011;51342;55.250;37.668;2022-07-06T00:32:03;14.65;;;13.20;;
45368;SDS011;51342;55.250;37.668;2022-07-06T00:34:35;14.40;;;13.10;;
45368;SDS011;51342;55.250;37.668;2022-07-06T00:37:06;14.60;;;13.23;;
45368;SDS011;51342;55.250;37.668;2022-07-06T00:39:38;14.07;;;12.57;;
45368;SDS011;51342;55.250;37.668;2022-07-06T00:42:09;13.40;;;12.13;;
45368;SDS011;51342;55.250;37.668;2022-07-06T00:44:41;14.60;;;13.13;;
45368;SDS011;51342;55.250;37.668;2022-07-06T00:47:12;13.25;;;12.00;;
45368;SDS011;51342;55.250;37.668;2022-07-06T00:49:43;13.02;;;11.82;;
45368;SDS011;51342;55.250;37.668;2022-07-06T00:52:33;13.00;;;11.80;;
45368;SDS011;51342;55.250;37.668;2022-07-06T00:55:04;14.07;;;12.68;;
45368;SDS011;51342;55.250;37.668;2022-07-06T00:57:36;14.07;;;12.68;;
45368;SDS011;51342;55.250;37.668;2022-07-06T01:00:09;15.82;;;14.43;;
45368;SDS011;51342;55.250;37.668;2022-07-06T01:02:42;14.90;;;13.50;;
45368;SDS011;51342;55.250;37.668;2022-07-06T01:05:15;15.93;;;14.27;;
45368;SDS011;51342;55.250;37.668;2022-07-06T01:07:47;15.93;;;14.40;;
45368;SDS011;51342;55.250;37.668;2022-07-06T01:10:21;14.75;;;13.35;;
45368;SDS011;51342;55.250;37.668;2022-07-06T01:12:53;15.48;;;13.98;;
45368;SDS011;51342;55.250;37.668;2022-07-06T01:15:27;15.02;;;13.52;;
45368;SDS011;51342;55.250;37.668;2022-07-06T01:17:59;14.63;;;13.15;;
45368;SDS011;51342;55.250;37.668;2022-07-06T01:20:35;16.75;;;15.05;;
45368;SDS011;51342;55.250;37.668;2022-07-06T01:23:06;16.10;;;14.68;;
45368;SDS011;51342;55.250;37.668;2022-07-06T01:25:38;17.15;;;15.50;;
45368;SDS011;51342;55.250;37.668;2022-07-06T01:28:09;16.23;;;14.50;;
45368;SDS011;51342;55.250;37.668;2022-07-06T01:30:40;17.17;;;15.57;;
45368;SDS011;51342;55.250;37.668;2022-07-06T01:33:12;16.05;;;14.55;;
45368;SDS011;51342;55.250;37.668;2022-07-06T01:35:43;14.80;;;13.35;;
45368;SDS011;51342;55.250;37.668;2022-07-06T01:38:14;15.50;;;14.13;;
45368;SDS011;51342;55.250;37.668;2022-07-06T01:40:46;16.35;;;14.73;;
45368;SDS011;51342;55.250;37.668;2022-07-06T01:43:18;17.13;;;14.65;;
45368;SDS011;51342;55.250;37.668;2022-07-06T01:45:49;15.63;;;13.75;;
45368;SDS011;51342;55.250;37.668;2022-07-06T01:48:21;16.35;;;13.55;;
45368;SDS011;51342;55.250;37.668;2022-07-06T01:50:52;17.08;;;15.27;;
45368;SDS011;51342;55.250;37.668;2022-07-06T01:53:24;15.50;;;13.77;;
45368;SDS011;51342;55.250;37.668;2022-07-06T01:55:55;18.17;;;16.30;;
45368;SDS011;51342;55.250;37.668;2022-07-06T01:58:27;19.88;;;17.77;;
45368;SDS011;51342;55.250;37.668;2022-07-06T02:00:58;18.17;;;15.60;;
45368;SDS011;51342;55.250;37.668;2022-07-06T02:03:30;15.77;;;14.27;;
45368;SDS011;51342;55.250;37.668;2022-07-06T02:06:04;17.00;;;15.07;;
45368;SDS011;51342;55.250;37.668;2022-07-06T02:08:38;17.20;;;15.50;;
45368;SDS011;51342;55.250;37.668;2022-07-06T02:11:10;17.30;;;15.55;;
45368;SDS011;51342;55.250;37.668;2022-07-06T02:13:44;17.42;;;15.82;;
45368;SDS011;51342;55.250;37.668;2022-07-06T02:16:16;15.80;;;14.30;;
45368;SDS011;51342;55.250;37.668;2022-07-06T02:18:47;14.50;;;12.93;;
45368;SDS011;51342;55.250;37.668;2022-07-06T02:21:18;14.55;;;13.18;;
45368;SDS011;51342;55.250;37.668;2022-07-06T02:23:51;15.50;;;13.88;;
45368;SDS011;51342;55.250;37.668;2022-07-06T02:26:23;14.38;;;13.00;;
45368;SDS011;51342;55.250;37.668;2022-07-06T02:28:55;11.82;;;10.82;;
45368;SDS011;51342;55.250;37.668;2022-07-06T02:31:27;13.70;;;12.52;;
45368;SDS011;51342;55.250;37.668;2022-07-06T02:33:58;14.13;;;12.70;;
45368;SDS011;51342;55.250;37.668;2022-07-06T02:36:29;13.52;;;11.70;;
45368;SDS011;51342;55.250;37.668;2022-07-06T02:39:01;13.38;;;12.13;;
45368;SDS011;51342;55.250;37.668;2022-07-06T02:41:34;13.45;;;12.25;;
45368;SDS011;51342;55.250;37.668;2022-07-06T02:44:06;14.50;;;13.02;;
45368;SDS011;51342;55.250;37.668;2022-07-06T02:46:37;15.23;;;13.02;;
45368;SDS011;51342;55.250;37.668;2022-07-06T02:49:11;16.55;;;14.93;;
45368;SDS011;51342;55.250;37.668;2022-07-06T02:51:42;16.10;;;14.48;;
45368;SDS011;51342;55.250;37.668;2022-07-06T02:54:14;19.17;;;15.65;;
45368;SDS011;51342;55.250;37.668;2022-07-06T02:56:46;17.00;;;15.00;;
45368;SDS011;51342;55.250;37.668;2022-07-06T02:59:22;16.73;;;15.13;;
45368;SDS011;51342;55.250;37.668;2022-07-06T03:01:54;16.92;;;15.27;;
45368;SDS011;51342;55.250;37.668;2022-07-06T03:04:26;17.25;;;15.43;;
45368;SDS011;51342;55.250;37.668;2022-07-06T03:06:58;16.55;;;14.85;;
45368;SDS011;51342;55.250;37.668;2022-07-06T03:09:29;17.02;;;15.30;;
45368;SDS011;51342;55.250;37.668;2022-07-06T03:12:01;17.20;;;15.50;;
45368;SDS011;51342;55.250;37.668;2022-07-06T03:14:35;18.15;;;15.93;;
45368;SDS011;51342;55.250;37.668;2022-07-06T03:17:07;16.85;;;15.25;;
45368;SDS011;51342;55.250;37.668;2022-07-06T03:19:38;17.98;;;16.25;;
45368;SDS011;51342;55.250;37.668;2022-07-06T03:22:10;18.20;;;16.40;;
45368;SDS011;51342;55.250;37.668;2022-07-06T03:24:41;18.75;;;16.98;;
45368;SDS011;51342;55.250;37.668;2022-07-06T03:27:13;20.70;;;18.77;;
45368;SDS011;51342;55.250;37.668;2022-07-06T03:29:46;20.27;;;18.23;;
45368;SDS011;51342;55.250;37.668;2022-07-06T03:32:18;20.40;;;18.38;;
45368;SDS011;51342;55.250;37.668;2022-07-06T03:34:49;21.40;;;19.23;;
45368;SDS011;51342;55.250;37.668;2022-07-06T03:37:21;20.38;;;18.23;;
45368;SDS011;51342;55.250;37.668;2022-07-06T03:39:52;18.67;;;16.75;;
45368;SDS011;51342;55.250;37.668;2022-07-06T03:42:25;17.50;;;14.80;;
45368;SDS011;51342;55.250;37.668;2022-07-06T03:44:56;18.13;;;16.40;;
45368;SDS011;51342;55.250;37.668;2022-07-06T03:47:28;19.23;;;17.42;;
45368;SDS011;51342;55.250;37.668;2022-07-06T03:49:59;21.15;;;19.08;;
45368;SDS011;51342;55.250;37.668;2022-07-06T03:52:31;20.33;;;18.38;;
45368;SDS011;51342;55.250;37.668;2022-07-06T03:55:02;22.40;;;20.10;;
45368;SDS011;51342;55.250;37.668;2022-07-06T03:57:35;23.77;;;21.38;;
45368;SDS011;51342;55.250;37.668;2022-07-06T04:00:09;23.45;;;21.15;;
45368;SDS011;51342;55.250;37.668;2022-07-06T04:02:52;23.73;;;21.38;;
45368;SDS011;51342;55.250;37.668;2022-07-06T04:05:28;24.65;;;22.33;;
45368;SDS011;51342;55.250;37.668;2022-07-06T04:07:59;23.38;;;21.00;;
45368;SDS011;51342;55.250;37.668;2022-07-06T04:10:41;22.17;;;19.00;;
45368;SDS011;51342;55.250;37.668;2022-07-06T04:13:12;21.75;;;19.50;;
45368;SDS011;51342;55.250;37.668;2022-07-06T04:15:43;21.40;;;19.33;;
45368;SDS011;51342;55.250;37.668;2022-07-06T04:18:15;22.50;;;17.02;;
45368;SDS011;51342;55.250;37.668;2022-07-06T04:20:52;19.95;;;17.85;;
45368;SDS011;51342;55.250;37.668;2022-07-06T04:23:24;19.73;;;17.63;;
45368;SDS011;51342;55.250;37.668;2022-07-06T04:25:57;19.23;;;17.42;;
45368;SDS011;51342;55.250;37.668;2022-07-06T04:28:30;18.95;;;16.65;;
45368;SDS011;51342;55.250;37.668;2022-07-06T04:31:01;19.33;;;17.30;;
45368;SDS011;51342;55.250;37.668;2022-07-06T04:33:33;18.55;;;16.58;;
45368;SDS011;51342;55.250;37.668;2022-07-06T04:36:05;19.73;;;17.50;;
45368;SDS011;51342;55.250;37.668;2022-07-06T04:38:43;19.85;;;16.83;;
45368;SDS011;51342;55.250;37.668;2022-07-06T04:41:16;16.98;;;15.30;;
45368;SDS011;51342;55.250;37.668;2022-07-06T04:43:48;17.98;;;16.15;;
45368;SDS011;51342;55.250;37.668;2022-07-06T04:46:22;19.48;;;17.42;;
45368;SDS011;51342;55.250;37.668;2022-07-06T04:48:56;17.67;;;15.75;;
45368;SDS011;51342;55.250;37.668;2022-07-06T04:51:32;18.00;;;16.27;;
45368;SDS011;51342;55.250;37.668;2022-07-06T04:54:04;16.73;;;15.13;;
45368;SDS011;51342;55.250;37.668;2022-07-06T04:56:37;18.15;;;16.35;;
45368;SDS011;51342;55.250;37.668;2022-07-06T04:59:09;18.58;;;16.50;;
45368;SDS011;51342;55.250;37.668;2022-07-06T05:01:41;18.10;;;16.33;;
45368;SDS011;51342;55.250;37.668;2022-07-06T05:04:12;17.92;;;16.05;;
45368;SDS011;51342;55.250;37.668;2022-07-06T05:06:44;17.63;;;15.65;;
45368;SDS011;51342;55.250;37.668;2022-07-06T05:09:16;17.80;;;16.08;;
45368;SDS011;51342;55.250;37.668;2022-07-06T05:11:50;18.23;;;16.15;;
45368;SDS011;51342;55.250;37.668;2022-07-06T05:14:22;17.27;;;15.65;;
45368;SDS011;51342;55.250;37.668;2022-07-06T05:16:54;18.30;;;16.50;;
45368;SDS011;51342;55.250;37.668;2022-07-06T05:19:27;17.95;;;16.23;;
45368;SDS011;51342;55.250;37.668;2022-07-06T05:22:00;15.90;;;14.38;;
45368;SDS011;51342;55.250;37.668;2022-07-06T05:24:31;16.70;;;15.20;;
45368;SDS011;51342;55.250;37.668;2022-07-06T05:27:03;16.42;;;14.52;;
45368;SDS011;51342;55.250;37.668;2022-07-06T05:29:37;16.05;;;14.50;;
45368;SDS011;51342;55.250;37.668;2022-07-06T05:32:09;16.42;;;14.98;;
45368;SDS011;51342;55.250;37.668;2022-07-06T05:34:40;16.08;;;14.55;;
45368;SDS011;51342;55.250;37.668;2022-07-06T05:37:12;16.02;;;14.52;;
45368;SDS011;51342;55.250;37.668;2022-07-06T05:39:44;18.38;;;15.18;;
45368;SDS011;51342;55.250;37.668;2022-07-06T05:42:18;15.98;;;14.40;;
45368;SDS011;51342;55.250;37.668;2022-07-06T05:44:54;16.25;;;14.85;;
45368;SDS011;51342;55.250;37.668;2022-07-06T05:47:27;16.25;;;14.85;;
45368;SDS011;51342;55.250;37.668;2022-07-06T05:50:17;14.98;;;13.57;;
45368;SDS011;51342;55.250;37.668;2022-07-06T05:53:01;17.15;;;15.35;;
45368;SDS011;51342;55.250;37.668;2022-07-06T05:55:35;18.60;;;15.85;;
45368;SDS011;51342;55.250;37.668;2022-07-06T05:58:07;18.20;;;16.55;;
45368;SDS011;51342;55.250;37.668;2022-07-06T06:00:41;20.52;;;18.42;;
45368;SDS011;51342;55.250;37.668;2022-07-06T06:03:18;16.90;;;15.40;;
45368;SDS011;51342;55.250;37.668;2022-07-06T06:05:51;15.93;;;14.55;;
45368;SDS011;51342;55.250;37.668;2022-07-06T06:08:24;19.98;;;17.88;;
45368;SDS011;51342;55.250;37.668;2022-07-06T06:10:56;19.85;;;17.95;;
45368;SDS011;51342;55.250;37.668;2022-07-06T06:13:30;18.83;;;17.27;;
45368;SDS011;51342;55.250;37.668;2022-07-06T06:16:01;19.73;;;17.88;;
45368;SDS011;51342;55.250;37.668;2022-07-06T06:18:33;19.38;;;17.67;;
45368;SDS011;51342;55.250;37.668;2022-07-06T06:21:05;21.35;;;19.45;;
45368;SDS011;51342;55.250;37.668;2022-07-06T06:23:36;21.02;;;18.95;;
45368;SDS011;51342;55.250;37.668;2022-07-06T06:26:08;20.40;;;18.55;;
45368;SDS011;51342;55.250;37.668;2022-07-06T06:28:39;21.17;;;18.92;;
45368;SDS011;51342;55.250;37.668;2022-07-06T06:31:12;18.42;;;16.75;;
45368;SDS011;51342;55.250;37.668;2022-07-06T06:33:43;19.55;;;17.60;;
45368;SDS011;51342;55.250;37.668;2022-07-06T06:36:15;20.50;;;18.60;;
45368;SDS011;51342;55.250;37.668;2022-07-06T06:38:46;19.58;;;17.80;;
45368;SDS011;51342;55.250;37.668;2022-07-06T06:41:18;18.60;;;16.90;;
45368;SDS011;51342;55.250;37.668;2022-07-06T06:43:51;17.65;;;16.15;;
45368;SDS011;51342;55.250;37.668;2022-07-06T06:46:28;17.42;;;15.73;;
45368;SDS011;51342;55.250;37.668;2022-07-06T06:48:59;16.80;;;15.15;;
45368;SDS011;51342;55.250;37.668;2022-07-06T06:51:31;17.70;;;16.00;;
45368;SDS011;51342;55.250;37.668;2022-07-06T06:54:03;18.40;;;16.77;;
45368;SDS011;51342;55.250;37.668;2022-07-06T06:56:34;17.27;;;15.68;;
45368;SDS011;51342;55.250;37.668;2022-07-06T06:59:05;16.67;;;15.02;;
45368;SDS011;51342;55.250;37.668;2022-07-06T07:01:37;16.83;;;15.30;;
45368;SDS011;51342;55.250;37.668;2022-07-06T07:04:08;16.05;;;14.60;;
45368;SDS011;51342;55.250;37.668;2022-07-06T07:06:40;16.27;;;14.77;;
45368;SDS011;51342;55.250;37.668;2022-07-06T07:09:11;16.80;;;15.20;;
45368;SDS011;51342;55.250;37.668;2022-07-06T07:11:42;16.25;;;14.75;;
45368;SDS011;51342;55.250;37.668;2022-07-06T07:14:13;17.02;;;15.45;;
45368;SDS011;51342;55.250;37.668;2022-07-06T07:16:45;15.52;;;14.13;;
45368;SDS011;51342;55.250;37.668;2022-07-06T07:19:16;15.85;;;14.23;;
45368;SDS011;51342;55.250;37.668;2022-07-06T07:21:47;15.20;;;13.70;;
45368;SDS011;51342;55.250;37.668;2022-07-06T07:24:19;15.57;;;14.07;;
45368;SDS011;51342;55.250;37.668;2022-07-06T07:26:51;14.98;;;13.68;;
45368;SDS011;51342;55.250;37.668;2022-07-06T07:29:22;15.70;;;14.25;;
45368;SDS011;51342;55.250;37.668;2022-07-06T07:31:54;15.23;;;13.82;;
45368;SDS011;51342;55.250;37.668;2022-07-06T07:34:25;14.88;;;13.55;;
45368;SDS011;51342;55.250;37.668;2022-07-06T07:36:57;13.93;;;12.82;;
45368;SDS011;51342;55.250;37.668;2022-07-06T07:39:28;14.02;;;12.77;;
45368;SDS011;51342;55.250;37.668;2022-07-06T07:41:59;14.00;;;12.80;;
45368;SDS011;51342;55.250;37.668;2022-07-06T07:44:31;14.85;;;13.38;;
45368;SDS011;51342;55.250;37.668;2022-07-06T07:47:02;14.90;;;13.43;;
45368;SDS011;51342;55.250;37.668;2022-07-06T07:49:34;14.23;;;12.85;;
45368;SDS011;51342;55.250;37.668;2022-07-06T07:52:05;14.95;;;13.70;;
45368;SDS011;51342;55.250;37.668;2022-07-06T07:54:36;14.95;;;13.55;;
45368;SDS011;51342;55.250;37.668;2022-07-06T07:57:08;14.65;;;13.45;;
45368;SDS011;51342;55.250;37.668;2022-07-06T07:59:40;14.85;;;13.65;;
45368;SDS011;51342;55.250;37.668;2022-07-06T08:02:12;14.88;;;13.55;;
45368;SDS011;51342;55.250;37.668;2022-07-06T08:04:44;14.45;;;13.25;;
45368;SDS011;51342;55.250;37.668;2022-07-06T08:07:15;15.25;;;13.90;;
45368;SDS011;51342;55.250;37.668;2022-07-06T08:09:47;14.15;;;12.85;;
45368;SDS011;51342;55.250;37.668;2022-07-06T08:12:18;15.00;;;13.70;;
45368;SDS011;51342;55.250;37.668;2022-07-06T08:14:49;14.77;;;13.52;;
45368;SDS011;51342;55.250;37.668;2022-07-06T08:17:21;15.88;;;14.48;;
45368;SDS011;51342;55.250;37.668;2022-07-06T08:19:52;14.50;;;13.05;;
45368;SDS011;51342;55.250;37.668;2022-07-06T08:22:23;13.93;;;12.73;;
45368;SDS011;51342;55.250;37.668;2022-07-06T08:24:55;14.38;;;13.07;;
45368;SDS011;51342;55.250;37.668;2022-07-06T08:27:27;15.95;;;14.43;;
45368;SDS011;51342;55.250;37.668;2022-07-06T08:29:58;15.27;;;13.95;;
45368;SDS011;51342;55.250;37.668;2022-07-06T08:32:31;15.05;;;13.75;;
45368;SDS011;51342;55.250;37.668;2022-07-06T08:35:02;14.43;;;13.23;;
45368;SDS011;51342;55.250;37.668;2022-07-06T08:37:34;14.07;;;12.88;;
45368;SDS011;51342;55.250;37.668;2022-07-06T08:40:06;13.85;;;12.52;;
45368;SDS011;51342;55.250;37.668;2022-07-06T08:42:37;13.52;;;12.32;;
45368;SDS011;51342;55.250;37.668;2022-07-06T08:45:09;13.57;;;12.48;;
45368;SDS011;51342;55.250;37.668;2022-07-06T08:47:41;13.75;;;12.48;;
45368;SDS011;51342;55.250;37.668;2022-07-06T08:50:12;14.02;;;12.82;;
45368;SDS011;51342;55.250;37.668;2022-07-06T08:52:45;13.48;;;12.27;;
45368;SDS011;51342;55.250;37.668;2022-07-06T08:55:19;14.05;;;12.60;;
45368;SDS011;51342;55.250;37.668;2022-07-06T08:57:51;12.65;;;11.45;;
45368;SDS011;51342;55.250;37.668;2022-07-06T09:00:23;13.02;;;11.88;;
45368;SDS011;51342;55.250;37.668;2022-07-06T09:02:55;12.50;;;11.50;;
45368;SDS011;51342;55.250;37.668;2022-07-06T09:05:28;13.10;;;11.90;;
45368;SDS011;51342;55.250;37.668;2022-07-06T09:08:01;12.77;;;11.60;;
45368;SDS011;51342;55.250;37.668;2022-07-06T09:10:33;12.85;;;11.70;;
45368;SDS011;51342;55.250;37.668;2022-07-06T09:13:05;12.93;;;11.82;;
45368;SDS011;51342;55.250;37.668;2022-07-06T09:15:38;12.10;;;10.98;;
45368;SDS011;51342;55.250;37.668;2022-07-06T09:18:10;12.90;;;11.90;;
45368;SDS011;51342;55.250;37.668;2022-07-06T09:20:44;13.50;;;12.30;;
45368;SDS011;51342;55.250;37.668;2022-07-06T09:23:16;13.10;;;11.98;;
45368;SDS011;51342;55.250;37.668;2022-07-06T09:25:48;13.68;;;12.43;;
45368;SDS011;51342;55.250;37.668;2022-07-06T09:28:20;13.40;;;12.30;;
45368;SDS011;51342;55.250;37.668;2022-07-06T09:30:54;12.45;;;11.27;;
45368;SDS011;51342;55.250;37.668;2022-07-06T09:33:25;12.48;;;11.23;;
45368;SDS011;51342;55.250;37.668;2022-07-06T09:35:57;12.10;;;11.02;;
45368;SDS011;51342;55.250;37.668;2022-07-06T09:38:31;12.07;;;11.02;;
45368;SDS011;51342;55.250;37.668;2022-07-06T09:41:03;12.50;;;11.50;;
45368;SDS011;51342;55.250;37.668;2022-07-06T09:43:34;12.20;;;11.15;;
45368;SDS011;51342;55.250;37.668;2022-07-06T09:46:05;13.00;;;11.70;;
45368;SDS011;51342;55.250;37.668;2022-07-06T09:48:37;12.27;;;11.15;;
45368;SDS011;51342;55.250;37.668;2022-07-06T09:51:12;12.02;;;10.82;;
45368;SDS011;51342;55.250;37.668;2022-07-06T09:53:50;12.38;;;10.98;;
45368;SDS011;51342;55.250;37.668;2022-07-06T09:56:22;12.68;;;11.10;;
45368;SDS011;51342;55.250;37.668;2022-07-06T09:59:11;12.20;;;10.98;;
45368;SDS011;51342;55.250;37.668;2022-07-06T10:01:44;12.68;;;11.57;;
45368;SDS011;51342;55.250;37.668;2022-07-06T10:04:16;12.32;;;11.13;;
45368;SDS011;51342;55.250;37.668;2022-07-06T10:06:49;12.93;;;11.48;;
45368;SDS011;51342;55.250;37.668;2022-07-06T10:09:22;10.95;;;9.88;;
45368;SDS011;51342;55.250;37.668;2022-07-06T10:11:57;11.52;;;10.43;;
45368;SDS011;51342;55.250;37.668;2022-07-06T10:14:30;10.98;;;10.07;;
45368;SDS011;51342;55.250;37.668;2022-07-06T10:17:04;10.93;;;9.90;;
45368;SDS011;51342;55.250;37.668;2022-07-06T10:19:36;11.75;;;10.68;;
45368;SDS011;51342;55.250;37.668;2022-07-06T10:22:09;11.27;;;10.27;;
45368;SDS011;51342;55.250;37.668;2022-07-06T10:24:41;11.35;;;10.43;;
45368;SDS011;51342;55.250;37.668;2022-07-06T10:27:14;12.05;;;10.88;;
45368;SDS011;51342;55.250;37.668;2022-07-06T10:29:46;11.02;;;10.13;;
45368;SDS011;51342;55.250;37.668;2022-07-06T10:32:18;11.38;;;10.48;;
45368;SDS011;51342;55.250;37.668;2022-07-06T10:34:52;11.43;;;10.43;;
45368;SDS011;51342;55.250;37.668;2022-07-06T10:37:24;11.77;;;10.57;;
45368;SDS011;51342;55.250;37.668;2022-07-06T10:39:57;11.43;;;10.43;;
45368;SDS011;51342;55.250;37.668;2022-07-06T10:42:48;10.57;;;9.57;;
45368;SDS011;51342;55.250;37.668;2022-07-06T10:46:05;8.20;;;7.50;;
45368;SDS011;51342;55.250;37.668;2022-07-06T10:48:16;8.63;;;7.82;;
45368;SDS011;51342;55.250;37.668;2022-07-06T10:50:50;8.20;;;7.40;;
45368;SDS011;51342;55.250;37.668;2022-07-06T10:53:28;7.78;;;6.90;;
45368;SDS011;51342;55.250;37.668;2022-07-06T10:56:04;7.43;;;6.72;;
45368;SDS011;51342;55.250;37.668;2022-07-06T10:58:41;8.48;;;6.78;;
45368;SDS011;51342;55.250;37.668;2022-07-06T11:01:21;7.68;;;6.70;;
45368;SDS011;51342;55.250;37.668;2022-07-06T11:06:31;7.50;;;6.40;;
45368;SDS011;51342;55.250;37.668;2022-07-06T11:11:38;8.38;;;7.55;;
45368;SDS011;51342;55.250;37.668;2022-07-06T11:14:17;9.18;;;8.38;;
45368;SDS011;51342;55.250;37.668;2022-07-06T11:19:21;9.68;;;8.60;;
45368;SDS011;51342;55.250;37.668;2022-07-06T11:21:55;10.20;;;9.20;;
45368;SDS011;51342;55.250;37.668;2022-07-06T11:24:29;9.95;;;9.15;;
45368;SDS011;51342;55.250;37.668;2022-07-06T11:27:01;10.65;;;9.10;;
45368;SDS011;51342;55.250;37.668;2022-07-06T11:29:33;9.70;;;8.80;;
45368;SDS011;51342;55.250;37.668;2022-07-06T11:32:08;9.55;;;8.55;;
45368;SDS011;51342;55.250;37.668;2022-07-06T11:34:43;10.30;;;9.40;;
45368;SDS011;51342;55.250;37.668;2022-07-06T11:37:15;10.40;;;9.50;;
45368;SDS011;51342;55.250;37.668;2022-07-06T11:39:48;9.32;;;8.48;;
45368;SDS011;51342;55.250;37.668;2022-07-06T11:42:19;10.32;;;9.43;;
45368;SDS011;51342;55.250;37.668;2022-07-06T11:44:51;10.60;;;9.63;;
45368;SDS011;51342;55.250;37.668;2022-07-06T11:47:30;10.88;;;10.02;;
45368;SDS011;51342;55.250;37.668;2022-07-06T11:50:01;10.80;;;9.75;;
45368;SDS011;51342;55.250;37.668;2022-07-06T11:52:33;9.63;;;8.73;;
45368;SDS011;51342;55.250;37.668;2022-07-06T11:55:04;10.90;;;9.77;;
45368;SDS011;51342;55.250;37.668;2022-07-06T11:57:36;9.52;;;8.57;;
45368;SDS011;51342;55.250;37.668;2022-07-06T12:00:12;9.70;;;8.80;;
45368;SDS011;51342;55.250;37.668;2022-07-06T12:02:58;9.45;;;8.55;;
45368;SDS011;51342;55.250;37.668;2022-07-06T12:05:31;8.95;;;8.18;;
45368;SDS011;51342;55.250;37.668;2022-07-06T12:08:06;9.80;;;8.90;;
45368;SDS011;51342;55.250;37.668;2022-07-06T12:10:37;10.60;;;9.45;;
45368;SDS011;51342;55.250;37.668;2022-07-06T12:13:09;9.52;;;8.57;;
45368;SDS011;51342;55.250;37.668;2022-07-06T12:15:40;9.55;;;8.75;;
45368;SDS011;51342;55.250;37.668;2022-07-06T12:18:12;9.65;;;8.75;;
45368;SDS011;51342;55.250;37.668;2022-07-06T12:20:43;9.80;;;8.90;;
45368;SDS011;51342;55.250;37.668;2022-07-06T12:23:14;10.45;;;9.40;;
45368;SDS011;51342;55.250;37.668;2022-07-06T12:25:46;10.05;;;9.15;;
45368;SDS011;51342;55.250;37.668;2022-07-06T12:28:23;10.07;;;9.07;;
45368;SDS011;51342;55.250;37.668;2022-07-06T12:30:54;9.55;;;8.65;;
45368;SDS011;51342;55.250;37.668;2022-07-06T12:33:25;10.68;;;9.68;;
45368;SDS011;51342;55.250;37.668;2022-07-06T12:36:08;11.50;;;10.45;;
45368;SDS011;51342;55.250;37.668;2022-07-06T12:38:47;10.73;;;9.73;;
45368;SDS011;51342;55.250;37.668;2022-07-06T12:41:26;11.02;;;10.02;;
45368;SDS011;51342;55.250;37.668;2022-07-06T12:44:00;11.57;;;10.48;;
45368;SDS011;51342;55.250;37.668;2022-07-06T12:46:35;13.90;;;10.70;;
45368;SDS011;51342;55.250;37.668;2022-07-06T12:49:15;11.50;;;10.50;;
45368;SDS011;51342;55.250;37.668;2022-07-06T12:51:55;11.30;;;10.30;;
45368;SDS011;51342;55.250;37.668;2022-07-06T12:54:46;11.70;;;10.63;;
45368;SDS011;51342;55.250;37.668;2022-07-06T12:57:23;12.15;;;10.93;;
45368;SDS011;51342;55.250;37.668;2022-07-06T12:59:57;11.55;;;10.55;;
45368;SDS011;51342;55.250;37.668;2022-07-06T13:02:33;11.55;;;10.55;;
45368;SDS011;51342;55.250;37.668;2022-07-06T13:05:09;11.43;;;10.48;;
45368;SDS011;51342;55.250;37.668;2022-07-06T13:07:46;11.73;;;10.63;;
45368;SDS011;51342;55.250;37.668;2022-07-06T13:10:19;10.82;;;9.77;;
45368;SDS011;51342;55.250;37.668;2022-07-06T13:12:51;12.40;;;11.25;;
45368;SDS011;51342;55.250;37.668;2022-07-06T13:15:23;11.82;;;10.60;;
45368;SDS011;51342;55.250;37.668;2022-07-06T13:17:54;12.45;;;11.30;;
45368;SDS011;51342;55.250;37.668;2022-07-06T13:20:26;11.07;;;10.07;;
45368;SDS011;51342;55.250;37.668;2022-07-06T13:22:58;11.88;;;10.75;;
45368;SDS011;51342;55.250;37.668;2022-07-06T13:25:30;12.23;;;10.57;;
45368;SDS011;51342;55.250;37.668;2022-07-06T13:28:01;11.70;;;10.70;;
45368;SDS011;51342;55.250;37.668;2022-07-06T13:30:33;11.63;;;10.52;;
45368;SDS011;51342;55.250;37.668;2022-07-06T13:33:04;11.57;;;10.48;;
45368;SDS011;51342;55.250;37.668;2022-07-06T13:35:35;10.50;;;9.50;;
45368;SDS011;51342;55.250;37.668;2022-07-06T13:38:06;10.65;;;9.55;;
45368;SDS011;51342;55.250;37.668;2022-07-06T13:40:39;11.60;;;10.70;;
45368;SDS011;51342;55.250;37.668;2022-07-06T13:43:12;11.48;;;10.50;;
45368;SDS011;51342;55.250;37.668;2022-07-06T13:45:43;12.13;;;10.90;;
45368;SDS011;51342;55.250;37.668;2022-07-06T13:48:15;11.73;;;10.68;;
45368;SDS011;51342;55.250;37.668;2022-07-06T13:50:46;11.60;;;10.70;;
45368;SDS011;51342;55.250;37.668;2022-07-06T13:53:17;15.70;;;14.15;;
45368;SDS011;51342;55.250;37.668;2022-07-06T13:55:49;11.30;;;10.18;;
45368;SDS011;51342;55.250;37.668;2022-07-06T13:58:20;13.02;;;11.82;;
45368;SDS011;51342;55.250;37.668;2022-07-06T14:00:52;12.50;;;11.40;;
45368;SDS011;51342;55.250;37.668;2022-07-06T14:03:23;11.80;;;10.80;;
45368;SDS011;51342;55.250;37.668;2022-07-06T14:06:00;12.02;;;11.02;;
45368;SDS011;51342;55.250;37.668;2022-07-06T14:08:35;11.88;;;10.85;;
45368;SDS011;51342;55.250;37.668;2022-07-06T14:11:09;12.20;;;10.95;;
45368;SDS011;51342;55.250;37.668;2022-07-06T14:13:41;11.68;;;10.70;;
45368;SDS011;51342;55.250;37.668;2022-07-06T14:16:12;11.65;;;10.55;;
45368;SDS011;51342;55.250;37.668;2022-07-06T14:18:44;12.52;;;11.32;;
45368;SDS011;51342;55.250;37.668;2022-07-06T14:21:15;12.13;;;11.02;;
45368;SDS011;51342;55.250;37.668;2022-07-06T14:23:47;13.23;;;12.00;;
45368;SDS011;51342;55.250;37.668;2022-07-06T14:26:19;12.30;;;11.27;;
45368;SDS011;51342;55.250;37.668;2022-07-06T14:28:51;13.10;;;11.90;;
45368;SDS011;51342;55.250;37.668;2022-07-06T14:31:23;13.15;;;11.93;;
45368;SDS011;51342;55.250;37.668;2022-07-06T14:33:54;12.75;;;11.65;;
45368;SDS011;51342;55.250;37.668;2022-07-06T14:36:26;13.30;;;12.05;;
45368;SDS011;51342;55.250;37.668;2022-07-06T14:38:57;13.30;;;12.07;;
45368;SDS011;51342;55.250;37.668;2022-07-06T14:41:28;12.02;;;11.02;;
45368;SDS011;51342;55.250;37.668;2022-07-06T14:43:59;11.98;;;10.88;;
45368;SDS011;51342;55.250;37.668;2022-07-06T14:46:31;12.38;;;11.13;;
45368;SDS011;51342;55.250;37.668;2022-07-06T14:49:02;12.35;;;11.13;;
45368;SDS011;51342;55.250;37.668;2022-07-06T14:51:33;12.57;;;11.38;;
45368;SDS011;51342;55.250;37.668;2022-07-06T14:54:05;12.82;;;11.73;;